sensor_id;sensor_type;location;lat;lon;timestamp;P1;durP1;ratioP1;P2;durP2;ratioP2
77018;SDS011;66044;53.142;17.962;2023-01-16T00:01:00;3.90;;;1.30;;
77018;SDS011;66044;53.142;17.962;2023-01-16T00:03:31;5.30;;;1.20;;
77018;SDS011;66044;53.142;17.962;2023-01-16T00:05:57;4.50;;;1.00;;
77018;SDS011;66044;53.142;17.962;2023-01-16T00:08:22;3.90;;;0.90;;
77018;SDS011;66044;53.142;17.962;2023-01-16T00:10:48;5.80;;;1.40;;
77018;SDS011;66044;53.142;17.962;2023-01-16T00:13:14;4.50;;;1.30;;
77018;SDS011;66044;53.142;17.962;2023-01-16T00:15:43;5.10;;;1.70;;
77018;SDS011;66044;53.142;17.962;2023-01-16T00:18:10;5.30;;;1.00;;
77018;SDS011;66044;53.142;17.962;2023-01-16T00:20:36;7.40;;;1.50;;
77018;SDS011;66044;53.142;17.962;2023-01-16T00:23:02;5.10;;;1.00;;
77018;SDS011;66044;53.142;17.962;2023-01-16T00:25:28;4.80;;;1.30;;
77018;SDS011;66044;53.142;17.962;2023-01-16T00:27:53;4.40;;;1.10;;
77018;SDS011;66044;53.142;17.962;2023-01-16T00:30:19;4.50;;;1.10;;
77018;SDS011;66044;53.142;17.962;2023-01-16T00:32:45;4.70;;;1.30;;
77018;SDS011;66044;53.142;17.962;2023-01-16T00:35:11;5.00;;;1.50;;
77018;SDS011;66044;53.142;17.962;2023-01-16T00:37:37;3.90;;;1.10;;
77018;SDS011;66044;53.142;17.962;2023-01-16T00:40:04;7.10;;;1.40;;
77018;SDS011;66044;53.142;17.962;2023-01-16T00:42:30;6.50;;;1.20;;
77018;SDS011;66044;53.142;17.962;2023-01-16T00:44:56;4.30;;;1.40;;
77018;SDS011;66044;53.142;17.962;2023-01-16T00:47:21;4.00;;;1.10;;
77018;SDS011;66044;53.142;17.962;2023-01-16T00:49:47;4.20;;;1.20;;
77018;SDS011;66044;53.142;17.962;2023-01-16T00:52:13;3.60;;;1.10;;
77018;SDS011;66044;53.142;17.962;2023-01-16T00:54:39;3.50;;;1.00;;
77018;SDS011;66044;53.142;17.962;2023-01-16T00:57:04;4.00;;;1.40;;
77018;SDS011;66044;53.142;17.962;2023-01-16T00:59:30;4.30;;;1.10;;
77018;SDS011;66044;53.142;17.962;2023-01-16T01:01:56;4.50;;;1.20;;
77018;SDS011;66044;53.142;17.962;2023-01-16T01:04:22;3.40;;;1.00;;
77018;SDS011;66044;53.142;17.962;2023-01-16T01:06:48;3.00;;;0.80;;
77018;SDS011;66044;53.142;17.962;2023-01-16T01:09:13;3.50;;;0.80;;
77018;SDS011;66044;53.142;17.962;2023-01-16T01:11:39;3.50;;;0.90;;
77018;SDS011;66044;53.142;17.962;2023-01-16T01:14:05;5.50;;;1.30;;
77018;SDS011;66044;53.142;17.962;2023-01-16T01:16:31;4.40;;;1.00;;
77018;SDS011;66044;53.142;17.962;2023-01-16T01:18:56;3.90;;;1.10;;
77018;SDS011;66044;53.142;17.962;2023-01-16T01:21:22;3.80;;;1.10;;
77018;SDS011;66044;53.142;17.962;2023-01-16T01:23:48;4.10;;;1.00;;
77018;SDS011;66044;53.142;17.962;2023-01-16T01:26:16;5.20;;;1.20;;
77018;SDS011;66044;53.142;17.962;2023-01-16T01:28:42;4.20;;;1.10;;
77018;SDS011;66044;53.142;17.962;2023-01-16T01:31:10;5.40;;;0.90;;
77018;SDS011;66044;53.142;17.962;2023-01-16T01:33:37;3.60;;;1.00;;
77018;SDS011;66044;53.142;17.962;2023-01-16T01:36:04;4.50;;;1.10;;
77018;SDS011;66044;53.142;17.962;2023-01-16T01:38:32;4.90;;;1.10;;
77018;SDS011;66044;53.142;17.962;2023-01-16T01:40:58;4.30;;;1.10;;
77018;SDS011;66044;53.142;17.962;2023-01-16T01:46:09;3.90;;;0.90;;
77018;SDS011;66044;53.142;17.962;2023-01-16T01:49:04;3.90;;;1.20;;
77018;SDS011;66044;53.142;17.962;2023-01-16T01:51:40;3.40;;;1.10;;
77018;SDS011;66044;53.142;17.962;2023-01-16T01:54:15;5.90;;;1.20;;
77018;SDS011;66044;53.142;17.962;2023-01-16T01:56:54;3.70;;;0.90;;
77018;SDS011;66044;53.142;17.962;2023-01-16T01:59:30;4.00;;;0.90;;
77018;SDS011;66044;53.142;17.962;2023-01-16T02:02:03;4.20;;;1.10;;
77018;SDS011;66044;53.142;17.962;2023-01-16T02:04:32;4.30;;;0.90;;
77018;SDS011;66044;53.142;17.962;2023-01-16T02:07:02;4.90;;;1.10;;
77018;SDS011;66044;53.142;17.962;2023-01-16T02:09:33;3.50;;;1.20;;
77018;SDS011;66044;53.142;17.962;2023-01-16T02:12:07;5.30;;;1.00;;
77018;SDS011;66044;53.142;17.962;2023-01-16T02:14:35;4.70;;;1.20;;
77018;SDS011;66044;53.142;17.962;2023-01-16T02:17:22;3.10;;;1.20;;
77018;SDS011;66044;53.142;17.962;2023-01-16T02:20:25;5.50;;;1.20;;
77018;SDS011;66044;53.142;17.962;2023-01-16T02:23:16;3.30;;;0.90;;
77018;SDS011;66044;53.142;17.962;2023-01-16T02:31:42;4.00;;;1.10;;
77018;SDS011;66044;53.142;17.962;2023-01-16T02:34:32;2.80;;;0.70;;
77018;SDS011;66044;53.142;17.962;2023-01-16T02:42:26;2.90;;;0.90;;
77018;SDS011;66044;53.142;17.962;2023-01-16T02:52:53;2.50;;;0.70;;
77018;SDS011;66044;53.142;17.962;2023-01-16T02:55:30;2.40;;;0.90;;
77018;SDS011;66044;53.142;17.962;2023-01-16T02:58:02;2.90;;;0.90;;
77018;SDS011;66044;53.142;17.962;2023-01-16T03:00:30;4.70;;;1.00;;
77018;SDS011;66044;53.142;17.962;2023-01-16T03:02:56;5.60;;;1.20;;
77018;SDS011;66044;53.142;17.962;2023-01-16T03:05:22;4.60;;;1.20;;
77018;SDS011;66044;53.142;17.962;2023-01-16T03:07:52;3.90;;;0.90;;
77018;SDS011;66044;53.142;17.962;2023-01-16T03:11:02;3.00;;;1.00;;
77018;SDS011;66044;53.142;17.962;2023-01-16T03:14:28;5.10;;;1.30;;
77018;SDS011;66044;53.142;17.962;2023-01-16T03:22:18;4.60;;;1.00;;
77018;SDS011;66044;53.142;17.962;2023-01-16T03:25:15;3.70;;;0.90;;
77018;SDS011;66044;53.142;17.962;2023-01-16T03:30:38;3.60;;;1.10;;
77018;SDS011;66044;53.142;17.962;2023-01-16T03:33:30;4.90;;;1.30;;
77018;SDS011;66044;53.142;17.962;2023-01-16T03:36:12;5.70;;;1.30;;
77018;SDS011;66044;53.142;17.962;2023-01-16T03:38:40;4.40;;;1.30;;
77018;SDS011;66044;53.142;17.962;2023-01-16T03:41:10;4.40;;;1.20;;
77018;SDS011;66044;53.142;17.962;2023-01-16T03:43:40;5.90;;;1.40;;
77018;SDS011;66044;53.142;17.962;2023-01-16T03:46:11;5.60;;;1.30;;
77018;SDS011;66044;53.142;17.962;2023-01-16T03:49:00;3.60;;;1.10;;
77018;SDS011;66044;53.142;17.962;2023-01-16T03:51:32;6.20;;;1.50;;
77018;SDS011;66044;53.142;17.962;2023-01-16T03:54:04;2.90;;;0.90;;
77018;SDS011;66044;53.142;17.962;2023-01-16T03:56:48;4.40;;;1.10;;
77018;SDS011;66044;53.142;17.962;2023-01-16T03:59:17;3.90;;;1.00;;
77018;SDS011;66044;53.142;17.962;2023-01-16T04:01:47;5.10;;;1.10;;
77018;SDS011;66044;53.142;17.962;2023-01-16T04:04:29;4.00;;;0.90;;
77018;SDS011;66044;53.142;17.962;2023-01-16T04:06:59;4.40;;;1.20;;
77018;SDS011;66044;53.142;17.962;2023-01-16T04:09:42;4.00;;;1.10;;
77018;SDS011;66044;53.142;17.962;2023-01-16T04:12:19;5.00;;;1.40;;
77018;SDS011;66044;53.142;17.962;2023-01-16T04:14:48;6.10;;;1.70;;
77018;SDS011;66044;53.142;17.962;2023-01-16T04:17:21;6.30;;;1.70;;
77018;SDS011;66044;53.142;17.962;2023-01-16T04:19:47;4.50;;;1.40;;
77018;SDS011;66044;53.142;17.962;2023-01-16T04:22:21;4.90;;;1.40;;
77018;SDS011;66044;53.142;17.962;2023-01-16T04:24:52;6.80;;;1.60;;
77018;SDS011;66044;53.142;17.962;2023-01-16T04:27:20;4.80;;;1.00;;
77018;SDS011;66044;53.142;17.962;2023-01-16T04:29:47;4.10;;;1.60;;
77018;SDS011;66044;53.142;17.962;2023-01-16T04:32:13;6.30;;;1.60;;
77018;SDS011;66044;53.142;17.962;2023-01-16T04:34:39;4.80;;;1.50;;
77018;SDS011;66044;53.142;17.962;2023-01-16T04:37:05;5.30;;;1.40;;
77018;SDS011;66044;53.142;17.962;2023-01-16T04:39:31;4.40;;;1.10;;
77018;SDS011;66044;53.142;17.962;2023-01-16T04:41:57;3.80;;;1.10;;
77018;SDS011;66044;53.142;17.962;2023-01-16T04:44:23;5.10;;;1.30;;
77018;SDS011;66044;53.142;17.962;2023-01-16T04:46:49;5.90;;;1.70;;
77018;SDS011;66044;53.142;17.962;2023-01-16T04:49:15;4.70;;;1.30;;
77018;SDS011;66044;53.142;17.962;2023-01-16T04:51:41;7.60;;;1.60;;
77018;SDS011;66044;53.142;17.962;2023-01-16T04:54:09;5.00;;;1.40;;
77018;SDS011;66044;53.142;17.962;2023-01-16T04:56:40;6.90;;;1.50;;
77018;SDS011;66044;53.142;17.962;2023-01-16T04:59:07;5.70;;;1.00;;
77018;SDS011;66044;53.142;17.962;2023-01-16T05:01:33;6.00;;;1.40;;
77018;SDS011;66044;53.142;17.962;2023-01-16T05:04:00;4.70;;;1.40;;
77018;SDS011;66044;53.142;17.962;2023-01-16T05:06:27;4.70;;;1.60;;
77018;SDS011;66044;53.142;17.962;2023-01-16T05:08:53;6.00;;;1.30;;
77018;SDS011;66044;53.142;17.962;2023-01-16T05:11:18;4.20;;;1.30;;
77018;SDS011;66044;53.142;17.962;2023-01-16T05:13:44;4.20;;;1.40;;
77018;SDS011;66044;53.142;17.962;2023-01-16T05:16:10;5.30;;;1.30;;
77018;SDS011;66044;53.142;17.962;2023-01-16T05:18:36;6.50;;;2.10;;
77018;SDS011;66044;53.142;17.962;2023-01-16T05:21:01;6.50;;;2.10;;
77018;SDS011;66044;53.142;17.962;2023-01-16T05:23:31;6.10;;;1.70;;
77018;SDS011;66044;53.142;17.962;2023-01-16T05:26:03;4.20;;;1.20;;
77018;SDS011;66044;53.142;17.962;2023-01-16T05:28:31;5.20;;;1.80;;
77018;SDS011;66044;53.142;17.962;2023-01-16T05:30:57;5.90;;;1.90;;
77018;SDS011;66044;53.142;17.962;2023-01-16T05:33:24;6.20;;;2.00;;
77018;SDS011;66044;53.142;17.962;2023-01-16T05:35:49;6.50;;;2.00;;
77018;SDS011;66044;53.142;17.962;2023-01-16T05:38:16;6.00;;;1.70;;
77018;SDS011;66044;53.142;17.962;2023-01-16T05:40:45;7.00;;;1.50;;
77018;SDS011;66044;53.142;17.962;2023-01-16T05:43:12;5.70;;;2.10;;
77018;SDS011;66044;53.142;17.962;2023-01-16T05:45:38;5.60;;;1.90;;
77018;SDS011;66044;53.142;17.962;2023-01-16T05:48:04;7.00;;;1.60;;
77018;SDS011;66044;53.142;17.962;2023-01-16T05:50:30;6.00;;;1.60;;
77018;SDS011;66044;53.142;17.962;2023-01-16T05:52:56;6.20;;;2.00;;
77018;SDS011;66044;53.142;17.962;2023-01-16T05:55:23;4.80;;;1.70;;
77018;SDS011;66044;53.142;17.962;2023-01-16T05:57:49;4.40;;;1.60;;
77018;SDS011;66044;53.142;17.962;2023-01-16T06:00:15;3.90;;;1.30;;
77018;SDS011;66044;53.142;17.962;2023-01-16T06:02:42;5.30;;;1.40;;
77018;SDS011;66044;53.142;17.962;2023-01-16T06:05:08;4.70;;;1.50;;
77018;SDS011;66044;53.142;17.962;2023-01-16T06:07:35;7.50;;;2.70;;
77018;SDS011;66044;53.142;17.962;2023-01-16T06:10:00;7.30;;;2.60;;
77018;SDS011;66044;53.142;17.962;2023-01-16T06:12:26;7.90;;;2.30;;
77018;SDS011;66044;53.142;17.962;2023-01-16T06:14:52;5.80;;;1.80;;
77018;SDS011;66044;53.142;17.962;2023-01-16T06:17:18;7.10;;;2.20;;
77018;SDS011;66044;53.142;17.962;2023-01-16T06:19:44;7.20;;;2.40;;
77018;SDS011;66044;53.142;17.962;2023-01-16T06:22:11;7.20;;;2.00;;
77018;SDS011;66044;53.142;17.962;2023-01-16T06:24:38;8.60;;;2.70;;
77018;SDS011;66044;53.142;17.962;2023-01-16T06:27:03;8.90;;;3.00;;
77018;SDS011;66044;53.142;17.962;2023-01-16T06:29:29;9.50;;;2.70;;
77018;SDS011;66044;53.142;17.962;2023-01-16T06:31:55;8.10;;;2.50;;
77018;SDS011;66044;53.142;17.962;2023-01-16T06:34:21;9.10;;;3.40;;
77018;SDS011;66044;53.142;17.962;2023-01-16T06:36:47;8.50;;;3.50;;
77018;SDS011;66044;53.142;17.962;2023-01-16T06:39:14;13.60;;;6.10;;
77018;SDS011;66044;53.142;17.962;2023-01-16T06:41:41;10.90;;;4.10;;
77018;SDS011;66044;53.142;17.962;2023-01-16T06:44:07;10.10;;;3.70;;
77018;SDS011;66044;53.142;17.962;2023-01-16T06:46:33;7.60;;;2.60;;
77018;SDS011;66044;53.142;17.962;2023-01-16T06:48:59;9.20;;;3.10;;
77018;SDS011;66044;53.142;17.962;2023-01-16T06:51:25;8.70;;;3.20;;
77018;SDS011;66044;53.142;17.962;2023-01-16T06:53:51;7.80;;;3.50;;
77018;SDS011;66044;53.142;17.962;2023-01-16T06:56:17;11.40;;;3.40;;
77018;SDS011;66044;53.142;17.962;2023-01-16T06:58:43;11.10;;;3.60;;
77018;SDS011;66044;53.142;17.962;2023-01-16T07:01:09;8.90;;;4.00;;
77018;SDS011;66044;53.142;17.962;2023-01-16T07:03:35;9.20;;;3.80;;
77018;SDS011;66044;53.142;17.962;2023-01-16T07:06:01;7.10;;;2.90;;
77018;SDS011;66044;53.142;17.962;2023-01-16T07:08:27;7.50;;;2.70;;
77018;SDS011;66044;53.142;17.962;2023-01-16T07:10:53;7.80;;;2.60;;
77018;SDS011;66044;53.142;17.962;2023-01-16T07:13:20;6.50;;;1.80;;
77018;SDS011;66044;53.142;17.962;2023-01-16T07:15:52;8.90;;;2.80;;
77018;SDS011;66044;53.142;17.962;2023-01-16T07:18:36;7.60;;;2.60;;
77018;SDS011;66044;53.142;17.962;2023-01-16T07:21:21;7.70;;;2.30;;
77018;SDS011;66044;53.142;17.962;2023-01-16T07:24:13;8.60;;;3.70;;
77018;SDS011;66044;53.142;17.962;2023-01-16T07:26:45;13.80;;;5.70;;
77018;SDS011;66044;53.142;17.962;2023-01-16T07:29:18;16.80;;;6.00;;
77018;SDS011;66044;53.142;17.962;2023-01-16T07:31:44;16.10;;;6.30;;
77018;SDS011;66044;53.142;17.962;2023-01-16T07:34:10;16.00;;;7.70;;
77018;SDS011;66044;53.142;17.962;2023-01-16T07:36:36;15.30;;;6.30;;
77018;SDS011;66044;53.142;17.962;2023-01-16T07:39:01;11.60;;;5.20;;
77018;SDS011;66044;53.142;17.962;2023-01-16T07:41:27;11.90;;;4.70;;
77018;SDS011;66044;53.142;17.962;2023-01-16T07:43:53;11.00;;;4.90;;
77018;SDS011;66044;53.142;17.962;2023-01-16T07:46:19;11.50;;;4.30;;
77018;SDS011;66044;53.142;17.962;2023-01-16T07:48:45;12.80;;;5.40;;
77018;SDS011;66044;53.142;17.962;2023-01-16T07:51:10;10.70;;;4.50;;
77018;SDS011;66044;53.142;17.962;2023-01-16T07:53:36;12.90;;;4.70;;
77018;SDS011;66044;53.142;17.962;2023-01-16T07:56:02;12.80;;;5.60;;
77018;SDS011;66044;53.142;17.962;2023-01-16T07:58:28;12.40;;;4.60;;
77018;SDS011;66044;53.142;17.962;2023-01-16T08:00:55;10.40;;;3.70;;
77018;SDS011;66044;53.142;17.962;2023-01-16T08:03:22;9.30;;;3.40;;
77018;SDS011;66044;53.142;17.962;2023-01-16T08:05:49;9.60;;;3.70;;
77018;SDS011;66044;53.142;17.962;2023-01-16T08:08:17;9.80;;;3.90;;
77018;SDS011;66044;53.142;17.962;2023-01-16T08:10:44;9.80;;;4.30;;
77018;SDS011;66044;53.142;17.962;2023-01-16T08:13:09;9.60;;;3.50;;
77018;SDS011;66044;53.142;17.962;2023-01-16T08:15:35;8.40;;;3.20;;
77018;SDS011;66044;53.142;17.962;2023-01-16T08:18:01;8.70;;;2.80;;
77018;SDS011;66044;53.142;17.962;2023-01-16T08:20:27;7.90;;;3.40;;
77018;SDS011;66044;53.142;17.962;2023-01-16T08:22:53;11.60;;;4.00;;
77018;SDS011;66044;53.142;17.962;2023-01-16T08:25:21;8.30;;;3.00;;
77018;SDS011;66044;53.142;17.962;2023-01-16T08:27:49;8.10;;;3.40;;
77018;SDS011;66044;53.142;17.962;2023-01-16T08:30:15;9.10;;;3.50;;
77018;SDS011;66044;53.142;17.962;2023-01-16T08:32:41;8.70;;;3.00;;
77018;SDS011;66044;53.142;17.962;2023-01-16T08:35:08;8.80;;;3.20;;
77018;SDS011;66044;53.142;17.962;2023-01-16T08:37:35;8.30;;;3.00;;
77018;SDS011;66044;53.142;17.962;2023-01-16T08:40:01;8.90;;;3.10;;
77018;SDS011;66044;53.142;17.962;2023-01-16T08:42:28;8.70;;;3.00;;
77018;SDS011;66044;53.142;17.962;2023-01-16T08:45:13;8.90;;;3.70;;
77018;SDS011;66044;53.142;17.962;2023-01-16T08:47:58;9.20;;;4.20;;
77018;SDS011;66044;53.142;17.962;2023-01-16T08:50:44;6.40;;;2.40;;
77018;SDS011;66044;53.142;17.962;2023-01-16T08:53:30;13.90;;;6.70;;
77018;SDS011;66044;53.142;17.962;2023-01-16T08:55:55;9.30;;;3.50;;
77018;SDS011;66044;53.142;17.962;2023-01-16T08:58:21;8.90;;;3.20;;
77018;SDS011;66044;53.142;17.962;2023-01-16T09:00:48;9.60;;;3.80;;
77018;SDS011;66044;53.142;17.962;2023-01-16T09:03:14;14.60;;;6.50;;
77018;SDS011;66044;53.142;17.962;2023-01-16T09:05:42;12.20;;;5.10;;
77018;SDS011;66044;53.142;17.962;2023-01-16T09:08:09;13.00;;;5.80;;
77018;SDS011;66044;53.142;17.962;2023-01-16T09:10:34;14.80;;;6.20;;
77018;SDS011;66044;53.142;17.962;2023-01-16T09:13:00;11.20;;;4.90;;
77018;SDS011;66044;53.142;17.962;2023-01-16T09:15:45;10.00;;;4.10;;
77018;SDS011;66044;53.142;17.962;2023-01-16T09:18:10;12.00;;;4.70;;
77018;SDS011;66044;53.142;17.962;2023-01-16T09:20:36;9.80;;;3.40;;
77018;SDS011;66044;53.142;17.962;2023-01-16T09:23:02;7.60;;;3.40;;
77018;SDS011;66044;53.142;17.962;2023-01-16T09:25:30;9.70;;;3.60;;
77018;SDS011;66044;53.142;17.962;2023-01-16T09:27:57;8.50;;;3.50;;
77018;SDS011;66044;53.142;17.962;2023-01-16T09:30:23;8.90;;;3.40;;
77018;SDS011;66044;53.142;17.962;2023-01-16T09:32:49;9.30;;;3.70;;
77018;SDS011;66044;53.142;17.962;2023-01-16T09:35:15;8.40;;;3.10;;
77018;SDS011;66044;53.142;17.962;2023-01-16T09:37:44;7.90;;;3.10;;
77018;SDS011;66044;53.142;17.962;2023-01-16T09:40:17;9.60;;;3.40;;
77018;SDS011;66044;53.142;17.962;2023-01-16T09:45:33;8.80;;;3.60;;
77018;SDS011;66044;53.142;17.962;2023-01-16T09:48:02;8.00;;;3.20;;
77018;SDS011;66044;53.142;17.962;2023-01-16T09:50:40;9.30;;;3.40;;
77018;SDS011;66044;53.142;17.962;2023-01-16T09:53:19;10.10;;;3.60;;
77018;SDS011;66044;53.142;17.962;2023-01-16T09:56:11;10.50;;;3.40;;
77018;SDS011;66044;53.142;17.962;2023-01-16T10:01:43;9.90;;;2.80;;
77018;SDS011;66044;53.142;17.962;2023-01-16T10:04:18;7.50;;;2.70;;
77018;SDS011;66044;53.142;17.962;2023-01-16T10:07:00;12.00;;;4.30;;
77018;SDS011;66044;53.142;17.962;2023-01-16T10:09:51;11.30;;;3.40;;
77018;SDS011;66044;53.142;17.962;2023-01-16T10:12:28;8.40;;;2.50;;
77018;SDS011;66044;53.142;17.962;2023-01-16T10:15:04;7.00;;;2.50;;
77018;SDS011;66044;53.142;17.962;2023-01-16T10:17:52;7.00;;;2.60;;
77018;SDS011;66044;53.142;17.962;2023-01-16T10:23:08;8.10;;;2.80;;
77018;SDS011;66044;53.142;17.962;2023-01-16T10:25:53;8.40;;;2.80;;
77018;SDS011;66044;53.142;17.962;2023-01-16T10:28:57;7.00;;;2.30;;
77018;SDS011;66044;53.142;17.962;2023-01-16T10:34:40;7.80;;;2.90;;
77018;SDS011;66044;53.142;17.962;2023-01-16T10:37:22;8.10;;;2.80;;
77018;SDS011;66044;53.142;17.962;2023-01-16T10:39:49;9.80;;;2.50;;
77018;SDS011;66044;53.142;17.962;2023-01-16T10:42:17;7.90;;;3.30;;
77018;SDS011;66044;53.142;17.962;2023-01-16T10:45:12;8.30;;;3.60;;
77018;SDS011;66044;53.142;17.962;2023-01-16T10:48:04;8.80;;;3.60;;
77018;SDS011;66044;53.142;17.962;2023-01-16T10:50:55;8.70;;;3.10;;
77018;SDS011;66044;53.142;17.962;2023-01-16T10:53:22;7.60;;;2.60;;
77018;SDS011;66044;53.142;17.962;2023-01-16T10:55:48;8.00;;;2.40;;
77018;SDS011;66044;53.142;17.962;2023-01-16T10:58:25;8.00;;;2.80;;
77018;SDS011;66044;53.142;17.962;2023-01-16T11:00:52;6.90;;;2.60;;
77018;SDS011;66044;53.142;17.962;2023-01-16T11:03:31;8.10;;;3.50;;
77018;SDS011;66044;53.142;17.962;2023-01-16T11:06:07;8.50;;;3.10;;
77018;SDS011;66044;53.142;17.962;2023-01-16T11:08:33;7.90;;;3.00;;
77018;SDS011;66044;53.142;17.962;2023-01-16T11:10:58;8.00;;;2.80;;
77018;SDS011;66044;53.142;17.962;2023-01-16T11:13:25;7.60;;;3.10;;
77018;SDS011;66044;53.142;17.962;2023-01-16T11:18:56;9.10;;;3.40;;
77018;SDS011;66044;53.142;17.962;2023-01-16T11:21:24;8.60;;;2.90;;
77018;SDS011;66044;53.142;17.962;2023-01-16T11:23:58;10.90;;;3.30;;
77018;SDS011;66044;53.142;17.962;2023-01-16T11:26:42;7.70;;;2.90;;
77018;SDS011;66044;53.142;17.962;2023-01-16T11:29:16;7.80;;;2.90;;
77018;SDS011;66044;53.142;17.962;2023-01-16T11:31:47;8.30;;;3.20;;
77018;SDS011;66044;53.142;17.962;2023-01-16T11:34:19;8.30;;;2.50;;
77018;SDS011;66044;53.142;17.962;2023-01-16T11:36:55;8.20;;;2.50;;
77018;SDS011;66044;53.142;17.962;2023-01-16T11:39:28;8.10;;;3.10;;
77018;SDS011;66044;53.142;17.962;2023-01-16T11:41:57;9.10;;;3.20;;
77018;SDS011;66044;53.142;17.962;2023-01-16T11:44:47;9.90;;;3.50;;
77018;SDS011;66044;53.142;17.962;2023-01-16T11:47:39;8.20;;;3.10;;
77018;SDS011;66044;53.142;17.962;2023-01-16T11:50:25;8.50;;;3.30;;
77018;SDS011;66044;53.142;17.962;2023-01-16T11:52:53;9.70;;;3.80;;
77018;SDS011;66044;53.142;17.962;2023-01-16T11:55:19;9.40;;;3.30;;
77018;SDS011;66044;53.142;17.962;2023-01-16T11:58:35;9.30;;;3.40;;
77018;SDS011;66044;53.142;17.962;2023-01-16T12:01:04;10.20;;;4.10;;
77018;SDS011;66044;53.142;17.962;2023-01-16T12:08:52;8.90;;;3.50;;
77018;SDS011;66044;53.142;17.962;2023-01-16T12:14:16;11.60;;;4.20;;
77018;SDS011;66044;53.142;17.962;2023-01-16T12:28:08;10.80;;;3.70;;
77018;SDS011;66044;53.142;17.962;2023-01-16T12:33:49;10.20;;;3.60;;
77018;SDS011;66044;53.142;17.962;2023-01-16T12:39:21;9.10;;;3.00;;
77018;SDS011;66044;53.142;17.962;2023-01-16T12:42:09;10.50;;;3.30;;
77018;SDS011;66044;53.142;17.962;2023-01-16T12:53:58;10.10;;;3.00;;
77018;SDS011;66044;53.142;17.962;2023-01-16T12:56:37;8.20;;;3.00;;
77018;SDS011;66044;53.142;17.962;2023-01-16T12:59:20;10.20;;;3.10;;
77018;SDS011;66044;53.142;17.962;2023-01-16T13:04:46;9.20;;;3.30;;
77018;SDS011;66044;53.142;17.962;2023-01-16T13:07:19;10.90;;;3.70;;
77018;SDS011;66044;53.142;17.962;2023-01-16T13:12:38;10.00;;;3.50;;
77018;SDS011;66044;53.142;17.962;2023-01-16T13:15:28;10.40;;;3.50;;
77018;SDS011;66044;53.142;17.962;2023-01-16T13:18:01;9.00;;;3.50;;
77018;SDS011;66044;53.142;17.962;2023-01-16T13:20:33;9.40;;;3.80;;
77018;SDS011;66044;53.142;17.962;2023-01-16T13:23:04;8.40;;;3.60;;
77018;SDS011;66044;53.142;17.962;2023-01-16T13:26:22;11.00;;;4.60;;
77018;SDS011;66044;53.142;17.962;2023-01-16T13:31:43;9.60;;;3.40;;
77018;SDS011;66044;53.142;17.962;2023-01-16T13:37:11;11.00;;;4.70;;
77018;SDS011;66044;53.142;17.962;2023-01-16T13:40:08;11.10;;;4.50;;
77018;SDS011;66044;53.142;17.962;2023-01-16T13:42:39;9.40;;;3.90;;
77018;SDS011;66044;53.142;17.962;2023-01-16T13:45:17;10.40;;;4.90;;
77018;SDS011;66044;53.142;17.962;2023-01-16T13:48:10;11.10;;;4.30;;
77018;SDS011;66044;53.142;17.962;2023-01-16T13:50:37;14.30;;;5.40;;
77018;SDS011;66044;53.142;17.962;2023-01-16T13:53:04;14.00;;;4.60;;
77018;SDS011;66044;53.142;17.962;2023-01-16T13:55:35;12.10;;;3.90;;
77018;SDS011;66044;53.142;17.962;2023-01-16T13:58:09;12.70;;;4.20;;
77018;SDS011;66044;53.142;17.962;2023-01-16T14:00:42;11.30;;;4.30;;
77018;SDS011;66044;53.142;17.962;2023-01-16T14:03:16;9.60;;;3.50;;
77018;SDS011;66044;53.142;17.962;2023-01-16T14:05:49;10.40;;;4.60;;
77018;SDS011;66044;53.142;17.962;2023-01-16T14:08:25;13.20;;;4.90;;
77018;SDS011;66044;53.142;17.962;2023-01-16T14:11:37;12.80;;;4.50;;
77018;SDS011;66044;53.142;17.962;2023-01-16T14:17:27;11.50;;;5.30;;
77018;SDS011;66044;53.142;17.962;2023-01-16T14:19:57;12.80;;;4.90;;
77018;SDS011;66044;53.142;17.962;2023-01-16T14:22:35;12.40;;;5.40;;
77018;SDS011;66044;53.142;17.962;2023-01-16T14:25:26;13.80;;;5.90;;
77018;SDS011;66044;53.142;17.962;2023-01-16T14:27:54;14.00;;;5.50;;
77018;SDS011;66044;53.142;17.962;2023-01-16T14:30:24;14.20;;;5.50;;
77018;SDS011;66044;53.142;17.962;2023-01-16T14:32:55;12.10;;;4.80;;
77018;SDS011;66044;53.142;17.962;2023-01-16T14:35:25;12.20;;;4.90;;
77018;SDS011;66044;53.142;17.962;2023-01-16T14:37:55;14.70;;;5.20;;
77018;SDS011;66044;53.142;17.962;2023-01-16T14:40:24;11.80;;;4.90;;
77018;SDS011;66044;53.142;17.962;2023-01-16T14:43:17;11.70;;;4.60;;
77018;SDS011;66044;53.142;17.962;2023-01-16T14:55:28;13.70;;;5.90;;
77018;SDS011;66044;53.142;17.962;2023-01-16T14:57:59;12.50;;;5.80;;
77018;SDS011;66044;53.142;17.962;2023-01-16T15:00:26;14.50;;;6.10;;
77018;SDS011;66044;53.142;17.962;2023-01-16T15:03:02;13.50;;;5.70;;
77018;SDS011;66044;53.142;17.962;2023-01-16T15:05:39;13.30;;;5.20;;
77018;SDS011;66044;53.142;17.962;2023-01-16T15:08:17;13.00;;;5.80;;
77018;SDS011;66044;53.142;17.962;2023-01-16T15:10:50;12.60;;;6.00;;
77018;SDS011;66044;53.142;17.962;2023-01-16T15:13:22;17.00;;;6.10;;
77018;SDS011;66044;53.142;17.962;2023-01-16T15:15:51;16.20;;;5.90;;
77018;SDS011;66044;53.142;17.962;2023-01-16T15:18:24;15.90;;;5.50;;
77018;SDS011;66044;53.142;17.962;2023-01-16T15:21:11;13.80;;;5.90;;
77018;SDS011;66044;53.142;17.962;2023-01-16T15:23:58;14.70;;;5.50;;
77018;SDS011;66044;53.142;17.962;2023-01-16T15:32:04;14.90;;;5.40;;
77018;SDS011;66044;53.142;17.962;2023-01-16T15:34:42;13.70;;;5.70;;
77018;SDS011;66044;53.142;17.962;2023-01-16T15:37:23;13.60;;;6.10;;
77018;SDS011;66044;53.142;17.962;2023-01-16T15:39:52;11.50;;;4.80;;
77018;SDS011;66044;53.142;17.962;2023-01-16T15:42:20;13.00;;;5.40;;
77018;SDS011;66044;53.142;17.962;2023-01-16T15:48:05;13.70;;;5.60;;
77018;SDS011;66044;53.142;17.962;2023-01-16T15:53:37;11.60;;;4.60;;
77018;SDS011;66044;53.142;17.962;2023-01-16T15:56:17;12.70;;;5.80;;
77018;SDS011;66044;53.142;17.962;2023-01-16T15:58:47;13.60;;;6.50;;
77018;SDS011;66044;53.142;17.962;2023-01-16T16:01:14;16.50;;;5.80;;
77018;SDS011;66044;53.142;17.962;2023-01-16T16:03:55;13.90;;;6.50;;
77018;SDS011;66044;53.142;17.962;2023-01-16T16:06:22;11.90;;;4.60;;
77018;SDS011;66044;53.142;17.962;2023-01-16T16:08:51;13.70;;;5.50;;
77018;SDS011;66044;53.142;17.962;2023-01-16T16:11:23;12.00;;;5.70;;
77018;SDS011;66044;53.142;17.962;2023-01-16T16:20:35;11.20;;;4.70;;
77018;SDS011;66044;53.142;17.962;2023-01-16T16:30:57;17.70;;;7.80;;
77018;SDS011;66044;53.142;17.962;2023-01-16T16:33:24;15.70;;;7.50;;
77018;SDS011;66044;53.142;17.962;2023-01-16T16:35:51;14.60;;;7.40;;
77018;SDS011;66044;53.142;17.962;2023-01-16T16:38:21;16.90;;;6.90;;
77018;SDS011;66044;53.142;17.962;2023-01-16T16:41:14;18.80;;;7.80;;
77018;SDS011;66044;53.142;17.962;2023-01-16T16:48:48;19.50;;;7.90;;
77018;SDS011;66044;53.142;17.962;2023-01-16T16:53:52;15.80;;;7.30;;
77018;SDS011;66044;53.142;17.962;2023-01-16T16:56:22;16.90;;;7.60;;
77018;SDS011;66044;53.142;17.962;2023-01-16T16:58:55;17.80;;;8.50;;
77018;SDS011;66044;53.142;17.962;2023-01-16T17:01:22;16.40;;;8.20;;
77018;SDS011;66044;53.142;17.962;2023-01-16T17:03:50;17.60;;;8.00;;
77018;SDS011;66044;53.142;17.962;2023-01-16T17:06:20;18.90;;;9.10;;
77018;SDS011;66044;53.142;17.962;2023-01-16T17:08:48;18.80;;;8.90;;
77018;SDS011;66044;53.142;17.962;2023-01-16T17:11:15;19.60;;;8.70;;
77018;SDS011;66044;53.142;17.962;2023-01-16T17:13:41;18.20;;;8.40;;
77018;SDS011;66044;53.142;17.962;2023-01-16T17:16:13;17.20;;;7.00;;